Time;durP1;ratioP1;P1;durP2;ratioP2;P2;SDS_P1;SDS_P2;PMS_P1;PMS_P2;Temp;Humidity;BMP_temperature;BMP_pressure;BME280_temperature;BME280_humidity;BME280_pressure;Samples;Min_cycle;Max_cycle;Signal;HPM_P1;HPM_P2
2023/11/07 00:01:30;;;;;;;6.78;2.28;;;15.50;96.70;;;;;;4920801;29;20050;-78
2023/11/07 00:04:00;;;;;;;6.50;2.92;;;15.50;96.70;;;;;;4918665;29;20036;-78
2023/11/07 00:06:28;;;;;;;8.90;2.58;;;15.50;96.70;;;;;;4917975;29;20059;-79
2023/11/07 00:08:56;;;;;;;5.18;2.33;;;15.40;96.70;;;;;;4896587;29;20669;-79
2023/11/07 00:11:25;;;;;;;4.03;2.00;;;15.40;96.70;;;;;;4912411;29;20118;-78
2023/11/07 00:13:53;;;;;;;5.10;2.53;;;15.40;96.70;;;;;;4929737;29;20071;-79
2023/11/07 00:16:21;;;;;;;4.88;1.70;;;15.40;96.70;;;;;;4914376;29;20410;-79
2023/11/07 00:18:49;;;;;;;6.88;2.03;;;15.30;96.70;;;;;;4904979;29;20055;-79
2023/11/07 00:21:17;;;;;;;6.32;2.22;;;15.30;96.70;;;;;;4926521;29;20130;-79
2023/11/07 00:23:44;;;;;;;5.65;2.33;;;15.30;96.70;;;;;;4909651;29;20043;-81
2023/11/07 00:26:13;;;;;;;6.38;1.80;;;15.30;96.70;;;;;;4918287;29;20098;-78
2023/11/07 00:28:50;;;;;;;4.80;1.80;;;15.20;96.70;;;;;;4900516;29;20067;-79
2023/11/07 00:31:17;;;;;;;4.05;1.70;;;15.10;96.70;;;;;;4912574;29;20307;-78
2023/11/07 00:33:45;;;;;;;6.78;1.55;;;15.20;96.70;;;;;;4901073;29;20043;-79
2023/11/07 00:36:13;;;;;;;3.42;1.70;;;15.20;96.70;;;;;;4921442;29;20410;-79
2023/11/07 00:38:41;;;;;;;5.20;1.90;;;15.10;96.70;;;;;;4897722;29;20409;-78
2023/11/07 00:41:10;;;;;;;4.32;1.60;;;15.10;96.70;;;;;;4932666;29;20043;-78
2023/11/07 00:43:39;;;;;;;3.00;1.60;;;15.10;96.70;;;;;;4933741;29;20462;-82
2023/11/07 00:46:08;;;;;;;5.60;1.67;;;15.10;96.70;;;;;;4928892;29;20502;-79
2023/11/07 00:48:36;;;;;;;4.22;1.98;;;15.10;96.70;;;;;;4928910;29;20046;-79
2023/11/07 00:51:05;;;;;;;5.22;1.80;;;15.00;96.70;;;;;;4919944;29;20052;-79
2023/11/07 00:53:33;;;;;;;6.07;1.65;;;15.00;96.70;;;;;;4941722;29;20118;-80
2023/11/07 00:56:03;;;;;;;3.60;1.60;;;15.00;96.70;;;;;;4908625;29;20052;-80
2023/11/07 00:58:31;;;;;;;6.47;2.05;;;15.10;96.70;;;;;;4908853;29;20108;-79
2023/11/07 01:01:00;;;;;;;4.88;1.52;;;15.20;96.70;;;;;;4912579;29;20769;-78
2023/11/07 01:03:29;;;;;;;5.25;1.85;;;15.20;96.70;;;;;;4908760;29;20066;-80
2023/11/07 01:05:57;;;;;;;6.05;2.13;;;15.20;96.70;;;;;;4892246;29;20064;-81
2023/11/07 01:08:25;;;;;;;4.47;1.95;;;15.20;96.70;;;;;;4912330;29;20052;-79
2023/11/07 01:10:53;;;;;;;7.00;2.30;;;15.20;96.70;;;;;;4915538;29;20032;-79
2023/11/07 01:13:22;;;;;;;5.97;2.20;;;15.20;96.70;;;;;;4909340;29;20593;-79
2023/11/07 01:15:49;;;;;;;3.35;1.77;;;15.10;96.70;;;;;;4892526;29;20083;-80
2023/11/07 01:18:17;;;;;;;7.95;1.88;;;15.00;96.70;;;;;;4891930;29;20527;-79
2023/11/07 01:20:47;;;;;;;6.28;2.03;;;15.00;96.70;;;;;;4907133;29;20044;-79
2023/11/07 01:23:15;;;;;;;4.10;1.63;;;15.00;96.70;;;;;;4909152;29;20820;-79
2023/11/07 01:25:42;;;;;;;5.15;1.73;;;15.00;96.70;;;;;;4893943;29;20502;-79
2023/11/07 01:28:12;;;;;;;6.55;2.00;;;15.00;96.70;;;;;;4918348;29;20142;-79
2023/11/07 01:30:39;;;;;;;4.55;1.73;;;15.10;96.70;;;;;;4913743;29;20506;-80
2023/11/07 01:33:07;;;;;;;8.07;2.47;;;14.90;96.70;;;;;;4907813;29;20052;-80
2023/11/07 01:35:35;;;;;;;3.65;1.80;;;15.00;96.70;;;;;;4909079;29;20068;-79
2023/11/07 01:38:04;;;;;;;6.18;1.70;;;15.00;96.70;;;;;;4907723;29;20052;-79
2023/11/07 01:40:32;;;;;;;4.95;1.77;;;14.90;96.70;;;;;;4889370;29;20499;-79
2023/11/07 01:43:11;;;;;;;3.95;2.03;;;14.90;96.70;;;;;;4891910;29;20044;-79
2023/11/07 01:45:39;;;;;;;4.07;1.60;;;14.90;96.70;;;;;;4892985;29;20112;-80
2023/11/07 01:48:08;;;;;;;4.85;2.10;;;14.80;96.70;;;;;;4915941;29;20043;-79
2023/11/07 01:50:37;;;;;;;5.32;2.15;;;14.80;96.70;;;;;;4895172;29;20040;-80
2023/11/07 01:53:07;;;;;;;5.38;1.90;;;14.80;96.70;;;;;;4914923;29;20044;-79
2023/11/07 01:55:35;;;;;;;5.32;1.58;;;14.80;96.70;;;;;;4912200;29;20064;-80
2023/11/07 01:58:03;;;;;;;6.90;1.77;;;14.80;96.70;;;;;;4917793;29;20056;-80
2023/11/07 02:00:31;;;;;;;4.80;1.70;;;14.80;96.70;;;;;;4894053;29;20052;-77
2023/11/07 02:02:59;;;;;;;6.75;2.08;;;14.80;96.70;;;;;;4897937;29;20182;-77
2023/11/07 02:05:29;;;;;;;7.00;1.98;;;14.80;96.70;;;;;;4909551;29;20144;-78
2023/11/07 02:07:58;;;;;;;3.70;1.67;;;14.80;96.70;;;;;;4903302;29;20052;-78
2023/11/07 02:10:27;;;;;;;5.00;1.70;;;14.70;96.70;;;;;;4912003;29;20058;-77
2023/11/07 02:12:55;;;;;;;4.88;2.00;;;14.70;96.70;;;;;;4891640;29;20091;-79
2023/11/07 02:15:30;;;;;;;4.38;1.70;;;14.70;96.70;;;;;;4907051;29;20048;-77
2023/11/07 02:17:57;;;;;;;3.47;1.52;;;14.70;96.70;;;;;;4907243;29;20063;-78
2023/11/07 02:20:26;;;;;;;2.92;1.50;;;14.60;96.70;;;;;;4907855;29;20048;-77
2023/11/07 02:23:02;;;;;;;3.78;1.80;;;14.60;96.70;;;;;;4921795;29;20056;-79
2023/11/07 02:25:32;;;;;;;5.00;1.35;;;14.70;96.70;;;;;;4903671;29;20470;-78
2023/11/07 02:28:01;;;;;;;3.97;1.73;;;14.70;96.70;;;;;;4907542;29;20115;-77
2023/11/07 02:30:29;;;;;;;5.18;1.48;;;14.70;96.70;;;;;;4914907;29;20047;-77
2023/11/07 02:32:57;;;;;;;2.80;1.25;;;14.70;96.70;;;;;;4907672;29;20435;-78
2023/11/07 02:35:26;;;;;;;4.70;1.77;;;14.60;96.70;;;;;;4912904;29;20048;-77
2023/11/07 02:37:54;;;;;;;3.20;1.20;;;14.60;96.70;;;;;;4914565;29;20059;-77
2023/11/07 02:40:22;;;;;;;4.40;1.65;;;14.50;96.70;;;;;;4907186;29;20498;-78
2023/11/07 02:42:51;;;;;;;3.63;1.30;;;14.40;96.70;;;;;;4907100;29;20055;-77
2023/11/07 02:45:19;;;;;;;3.65;1.23;;;14.40;96.70;;;;;;4914853;29;20077;-78
2023/11/07 02:47:46;;;;;;;2.97;1.20;;;14.50;96.70;;;;;;4916161;29;20052;-78
2023/11/07 02:50:16;;;;;;;2.75;1.48;;;14.60;96.70;;;;;;4925286;29;20181;-78
2023/11/07 02:52:44;;;;;;;5.07;1.40;;;14.50;96.70;;;;;;4917711;29;20519;-78
2023/11/07 02:55:12;;;;;;;3.13;1.48;;;14.40;96.70;;;;;;4921015;29;20121;-78
2023/11/07 02:57:39;;;;;;;1.85;1.10;;;14.30;96.70;;;;;;4939184;29;20039;-79
2023/11/07 03:00:10;;;;;;;3.13;1.20;;;14.40;96.70;;;;;;4915566;29;20459;-77
2023/11/07 03:02:39;;;;;;;3.60;1.20;;;14.40;96.70;;;;;;4917672;29;20568;-77
2023/11/07 03:05:08;;;;;;;3.55;1.45;;;14.30;96.70;;;;;;4909689;29;20082;-78
2023/11/07 03:07:36;;;;;;;5.13;1.10;;;14.30;96.70;;;;;;4891208;29;20048;-79
2023/11/07 03:10:06;;;;;;;5.90;1.05;;;14.30;96.70;;;;;;4908470;29;20051;-78
2023/11/07 03:12:34;;;;;;;3.63;1.38;;;14.30;96.70;;;;;;4909766;29;20051;-78
2023/11/07 03:15:03;;;;;;;3.83;1.73;;;14.30;96.70;;;;;;4909598;29;20573;-78
2023/11/07 03:17:33;;;;;;;4.05;1.10;;;14.30;96.70;;;;;;4909676;29;20058;-78
2023/11/07 03:20:01;;;;;;;4.43;1.02;;;14.30;96.70;;;;;;4909334;29;20074;-77
2023/11/07 03:22:29;;;;;;;3.30;1.50;;;14.30;96.70;;;;;;4910857;29;20047;-77
2023/11/07 03:24:56;;;;;;;4.32;1.00;;;14.20;96.70;;;;;;4935789;28;20048;-78
2023/11/07 03:27:24;;;;;;;4.85;0.75;;;14.20;96.70;;;;;;4922100;29;20048;-77
2023/11/07 03:29:52;;;;;;;4.28;1.00;;;14.20;96.70;;;;;;4921979;29;20047;-78
2023/11/07 03:32:20;;;;;;;3.28;1.17;;;14.30;96.70;;;;;;4908300;29;20043;-78
2023/11/07 03:34:49;;;;;;;2.55;1.10;;;14.30;96.70;;;;;;4939760;29;20047;-78
2023/11/07 03:37:17;;;;;;;4.65;1.33;;;14.30;96.70;;;;;;4924553;29;21180;-78
2023/11/07 03:39:45;;;;;;;7.32;1.40;;;14.30;96.70;;;;;;4921398;29;20099;-78
2023/11/07 03:42:15;;;;;;;3.67;1.13;;;14.30;96.70;;;;;;4913238;29;20050;-79
2023/11/07 03:44:43;;;;;;;4.38;0.90;;;14.20;96.70;;;;;;4930945;29;20044;-79
2023/11/07 03:47:11;;;;;;;4.07;1.30;;;14.20;96.70;;;;;;4930281;29;20079;-77
2023/11/07 03:49:39;;;;;;;5.53;1.33;;;14.30;96.70;;;;;;4939984;29;20047;-78
2023/11/07 03:52:08;;;;;;;3.30;1.00;;;14.30;96.70;;;;;;4931499;29;20063;-78
2023/11/07 03:54:36;;;;;;;2.00;0.90;;;14.30;96.70;;;;;;4927654;29;20047;-77
2023/11/07 03:57:04;;;;;;;2.67;1.10;;;14.20;96.70;;;;;;4934824;29;20058;-79
2023/11/07 03:59:32;;;;;;;5.25;1.23;;;14.20;96.70;;;;;;4927651;29;20121;-78
2023/11/07 04:02:02;;;;;;;6.03;1.05;;;14.10;96.70;;;;;;4913666;29;20048;-78
2023/11/07 04:04:31;;;;;;;2.78;1.13;;;14.10;96.70;;;;;;4914432;29;20435;-78
2023/11/07 04:06:59;;;;;;;2.97;1.00;;;14.20;96.70;;;;;;4901826;29;20410;-78
2023/11/07 04:09:28;;;;;;;5.63;1.25;;;14.10;96.70;;;;;;4916853;29;20505;-77
2023/11/07 04:11:56;;;;;;;3.83;1.08;;;14.20;96.70;;;;;;4912696;29;20091;-79
2023/11/07 04:14:24;;;;;;;3.72;0.80;;;14.20;96.70;;;;;;4929167;29;20398;-78
2023/11/07 04:16:52;;;;;;;2.67;1.00;;;14.10;96.70;;;;;;4896252;29;20044;-77
2023/11/07 04:19:21;;;;;;;8.70;1.20;;;14.10;96.70;;;;;;4915659;29;20084;-77
2023/11/07 04:21:49;;;;;;;4.88;0.95;;;14.20;96.70;;;;;;4936931;29;20134;-77
2023/11/07 04:24:17;;;;;;;4.35;1.20;;;14.20;96.70;;;;;;4934825;29;20043;-78
2023/11/07 04:26:46;;;;;;;2.08;1.00;;;14.10;96.70;;;;;;4940295;29;20066;-78
2023/11/07 04:29:14;;;;;;;4.65;1.00;;;14.20;96.70;;;;;;4920926;29;20047;-78
2023/11/07 04:31:41;;;;;;;5.55;0.98;;;14.20;96.70;;;;;;4929808;29;20043;-78
2023/11/07 04:34:09;;;;;;;3.65;1.10;;;14.20;96.70;;;;;;4911892;29;20541;-78
2023/11/07 04:36:38;;;;;;;4.10;1.00;;;14.20;96.70;;;;;;4911797;29;20047;-78
2023/11/07 04:39:09;;;;;;;3.80;1.60;;;14.10;96.70;;;;;;4895270;29;20062;-78
2023/11/07 04:41:37;;;;;;;2.97;1.02;;;14.10;96.70;;;;;;4911847;29;20040;-78
2023/11/07 04:44:07;;;;;;;4.00;1.13;;;14.00;96.70;;;;;;4911654;29;20090;-77
2023/11/07 04:46:39;;;;;;;2.05;0.90;;;14.00;96.70;;;;;;4929360;29;20043;-77
2023/11/07 04:49:07;;;;;;;3.67;1.17;;;13.90;96.70;;;;;;4896091;29;20143;-77
2023/11/07 04:51:36;;;;;;;4.30;1.08;;;13.90;96.70;;;;;;4945349;29;20110;-78
2023/11/07 04:54:04;;;;;;;2.88;1.02;;;13.90;96.70;;;;;;4913831;29;20052;-77
2023/11/07 04:56:32;;;;;;;5.22;1.15;;;13.90;96.70;;;;;;4945032;29;20055;-78
2023/11/07 04:59:00;;;;;;;2.75;1.10;;;13.90;96.70;;;;;;4938446;29;20503;-77
2023/11/07 05:01:29;;;;;;;4.93;1.38;;;13.90;96.70;;;;;;4937670;29;20040;-78
2023/11/07 05:03:57;;;;;;;4.95;1.58;;;13.80;96.70;;;;;;4929219;29;20054;-79
2023/11/07 05:06:25;;;;;;;3.15;1.50;;;13.70;96.70;;;;;;4896789;29;20048;-79
2023/11/07 05:08:53;;;;;;;5.47;1.70;;;13.70;96.70;;;;;;4912498;29;20463;-78
2023/11/07 05:11:21;;;;;;;3.75;1.45;;;13.70;96.70;;;;;;4930433;29;20702;-80
2023/11/07 05:13:49;;;;;;;13.15;2.10;;;13.60;96.70;;;;;;4911673;29;20070;-78
2023/11/07 05:16:17;;;;;;;10.20;2.25;;;13.60;96.70;;;;;;4933629;29;20941;-79
2023/11/07 05:18:46;;;;;;;5.57;1.80;;;13.60;96.70;;;;;;4917627;29;20413;-79
2023/11/07 05:21:14;;;;;;;5.50;2.35;;;13.60;96.70;;;;;;4937197;29;20067;-78
2023/11/07 05:23:42;;;;;;;8.75;2.30;;;13.60;96.70;;;;;;4911025;29;20055;-79
2023/11/07 05:26:10;;;;;;;5.68;2.40;;;13.70;96.70;;;;;;4926648;29;20036;-79
2023/11/07 05:28:38;;;;;;;4.80;2.22;;;13.60;96.70;;;;;;4928282;29;20178;-80
2023/11/07 05:31:06;;;;;;;3.50;2.15;;;13.60;96.70;;;;;;4911672;29;20398;-79
2023/11/07 05:33:36;;;;;;;7.45;2.63;;;13.60;96.70;;;;;;4911109;29;20055;-79
2023/11/07 05:36:06;;;;;;;3.78;2.03;;;13.60;96.70;;;;;;4896201;29;20134;-79
2023/11/07 05:38:34;;;;;;;7.25;2.53;;;13.60;96.70;;;;;;4928594;29;20079;-79
2023/11/07 05:41:04;;;;;;;4.00;2.20;;;13.50;96.70;;;;;;4913168;29;20047;-80
2023/11/07 05:43:32;;;;;;;4.18;1.95;;;13.50;96.70;;;;;;4914856;29;20058;-78
2023/11/07 05:46:00;;;;;;;3.33;1.88;;;13.50;96.70;;;;;;4916230;29;20087;-79
2023/11/07 05:48:28;;;;;;;3.30;2.10;;;13.50;96.70;;;;;;4910992;29;20048;-79
2023/11/07 05:50:56;;;;;;;4.13;2.10;;;13.50;96.70;;;;;;4928234;29;20043;-78
2023/11/07 05:53:25;;;;;;;3.75;2.28;;;13.50;96.70;;;;;;4896315;29;20052;-80
2023/11/07 05:55:53;;;;;;;3.92;2.10;;;13.50;96.70;;;;;;4928657;29;20058;-78
2023/11/07 05:58:21;;;;;;;4.28;2.28;;;13.60;96.70;;;;;;4942204;29;20047;-78
2023/11/07 06:00:50;;;;;;;4.40;1.80;;;13.50;96.70;;;;;;4924951;29;20043;-79
2023/11/07 06:03:17;;;;;;;6.07;2.03;;;13.50;96.70;;;;;;4936143;29;20054;-79
2023/11/07 06:05:45;;;;;;;6.20;2.65;;;13.40;96.70;;;;;;4945883;29;20469;-80
2023/11/07 06:08:13;;;;;;;5.43;2.30;;;13.40;96.70;;;;;;4936785;29;20054;-78
2023/11/07 06:10:43;;;;;;;2.72;1.65;;;13.40;96.70;;;;;;4914560;29;20047;-79
2023/11/07 06:13:11;;;;;;;4.22;1.52;;;13.40;96.70;;;;;;4946280;29;20049;-79
2023/11/07 06:15:38;;;;;;;4.25;1.85;;;13.50;96.70;;;;;;4931446;29;20047;-78
2023/11/07 06:18:06;;;;;;;3.30;1.83;;;13.50;96.70;;;;;;4927875;29;20102;-78
2023/11/07 06:20:34;;;;;;;3.92;2.30;;;13.50;96.70;;;;;;4919210;29;20055;-79
2023/11/07 06:23:02;;;;;;;6.38;1.60;;;13.50;96.70;;;;;;4926350;29;20066;-79
2023/11/07 06:25:30;;;;;;;1.98;1.60;;;13.60;96.70;;;;;;4927798;29;20051;-79
2023/11/07 06:27:59;;;;;;;3.40;1.92;;;13.70;96.70;;;;;;4927921;29;20049;-78
2023/11/07 06:30:29;;;;;;;4.97;1.70;;;13.60;96.70;;;;;;4933139;29;20036;-78
2023/11/07 06:32:58;;;;;;;2.83;1.83;;;13.50;96.70;;;;;;4919793;29;20083;-80
2023/11/07 06:35:26;;;;;;;4.78;1.80;;;13.50;96.70;;;;;;4928942;29;20028;-79
2023/11/07 06:37:54;;;;;;;2.50;1.48;;;13.50;96.70;;;;;;4909447;29;20048;-80
2023/11/07 06:40:23;;;;;;;4.63;1.65;;;13.60;96.70;;;;;;4914760;29;20461;-79
2023/11/07 06:42:52;;;;;;;3.80;1.85;;;13.70;96.70;;;;;;4919816;29;20047;-77
2023/11/07 06:45:23;;;;;;;3.95;2.22;;;13.60;96.70;;;;;;4927429;29;20160;-79
2023/11/07 06:47:51;;;;;;;2.70;1.70;;;13.60;96.70;;;;;;4927206;29;20447;-79
2023/11/07 06:50:19;;;;;;;4.57;2.20;;;13.60;96.70;;;;;;4929477;29;20486;-81
2023/11/07 06:52:52;;;;;;;3.85;1.88;;;13.70;96.70;;;;;;4910728;29;20039;-81
2023/11/07 06:55:24;;;;;;;3.05;1.88;;;13.70;96.70;;;;;;4911308;29;20063;-81
2023/11/07 06:57:54;;;;;;;5.25;2.25;;;13.80;96.70;;;;;;4896102;29;20073;-82
2023/11/07 07:00:25;;;;;;;6.35;2.10;;;13.80;96.70;;;;;;4911788;29;20056;-82
2023/11/07 07:02:55;;;;;;;2.70;1.75;;;13.80;96.70;;;;;;4913859;29;20048;-80
2023/11/07 07:05:25;;;;;;;6.97;2.00;;;13.90;96.70;;;;;;4926995;29;20052;-79
2023/11/07 07:07:54;;;;;;;5.13;2.08;;;13.80;96.70;;;;;;4933737;29;20065;-79
2023/11/07 07:10:22;;;;;;;4.63;2.05;;;13.80;96.70;;;;;;4911144;29;20224;-83
2023/11/07 07:12:51;;;;;;;5.18;2.00;;;13.90;96.70;;;;;;4911857;29;20215;-82
2023/11/07 07:15:19;;;;;;;3.72;1.70;;;13.80;96.70;;;;;;4911582;29;20118;-81
2023/11/07 07:17:48;;;;;;;5.32;2.28;;;13.90;96.70;;;;;;4910961;29;20477;-81
2023/11/07 07:20:16;;;;;;;4.28;2.05;;;14.00;96.70;;;;;;4928391;29;20044;-81
2023/11/07 07:22:44;;;;;;;4.10;1.90;;;14.00;96.70;;;;;;4910277;29;20051;-81
2023/11/07 07:25:16;;;;;;;5.88;2.35;;;14.10;96.70;;;;;;4928153;29;20052;-81
2023/11/07 07:27:45;;;;;;;6.40;2.42;;;14.20;96.70;;;;;;4911080;29;20052;-81
2023/11/07 07:30:20;;;;;;;6.55;3.20;;;14.20;96.70;;;;;;4902388;29;20589;-82
2023/11/07 07:32:52;;;;;;;6.75;2.47;;;14.20;96.70;;;;;;4912830;29;20058;-83
2023/11/07 07:35:20;;;;;;;5.45;2.20;;;14.20;96.70;;;;;;4912373;29;20067;-81
2023/11/07 07:37:53;;;;;;;4.57;2.00;;;14.30;96.70;;;;;;4928380;29;20075;-81
2023/11/07 07:40:25;;;;;;;5.43;1.90;;;14.40;96.70;;;;;;4894808;29;20078;-85
2023/11/07 07:42:55;;;;;;;3.92;2.15;;;14.40;96.70;;;;;;4909634;29;20126;-79
2023/11/07 07:45:24;;;;;;;5.35;1.83;;;14.40;96.70;;;;;;4909614;29;20051;-80
2023/11/07 07:47:53;;;;;;;4.60;1.80;;;14.40;96.70;;;;;;4927133;29;20387;-81
2023/11/07 07:50:21;;;;;;;5.60;1.80;;;14.50;96.70;;;;;;4909645;29;20055;-81
2023/11/07 07:52:54;;;;;;;4.88;1.67;;;14.50;96.70;;;;;;4890844;29;20182;-81
2023/11/07 07:55:23;;;;;;;6.55;2.13;;;14.50;96.70;;;;;;4943878;29;20071;-80
2023/11/07 07:58:02;;;;;;;4.63;1.80;;;14.50;96.70;;;;;;4902333;29;20063;-79
2023/11/07 08:00:33;;;;;;;9.98;2.15;;;14.60;96.70;;;;;;4910744;29;20051;-81
2023/11/07 08:03:06;;;;;;;6.47;2.22;;;14.70;96.70;;;;;;4920823;29;20843;-80
2023/11/07 08:05:39;;;;;;;6.50;2.47;;;14.70;96.70;;;;;;4918639;29;20087;-81
2023/11/07 08:08:09;;;;;;;6.05;2.10;;;14.80;96.70;;;;;;4935597;29;20047;-80
2023/11/07 08:10:38;;;;;;;4.35;1.83;;;14.70;96.70;;;;;;4925987;28;20094;-80
2023/11/07 08:13:06;;;;;;;6.32;2.15;;;14.70;96.70;;;;;;4924995;29;20074;-81
2023/11/07 08:15:35;;;;;;;5.97;2.10;;;14.70;96.70;;;;;;4935831;29;20119;-80
2023/11/07 08:18:06;;;;;;;8.20;2.20;;;14.80;96.70;;;;;;4917461;29;20047;-80
2023/11/07 08:20:36;;;;;;;3.00;1.80;;;14.80;96.70;;;;;;4940631;29;20078;-81
2023/11/07 08:23:28;;;;;;;5.45;2.03;;;14.70;96.70;;;;;;4931992;29;20525;-80
2023/11/07 08:25:57;;;;;;;6.55;2.20;;;14.80;96.70;;;;;;4929788;29;20075;-80
2023/11/07 08:28:28;;;;;;;4.85;1.98;;;14.90;96.70;;;;;;4930144;29;20054;-81
2023/11/07 08:30:57;;;;;;;6.93;2.10;;;14.80;96.70;;;;;;4930058;29;20569;-80
2023/11/07 08:33:27;;;;;;;5.45;1.90;;;14.90;96.70;;;;;;4897708;29;20055;-81
2023/11/07 08:35:56;;;;;;;6.75;2.33;;;15.00;96.70;;;;;;4912642;29;20122;-79
2023/11/07 08:38:25;;;;;;;5.30;1.98;;;15.10;96.70;;;;;;4912378;29;20048;-79
2023/11/07 08:40:53;;;;;;;6.00;1.95;;;15.10;96.70;;;;;;4903817;29;20719;-80
2023/11/07 08:43:21;;;;;;;5.85;1.95;;;15.20;96.70;;;;;;4912723;29;20092;-80
2023/11/07 08:45:50;;;;;;;6.80;2.15;;;15.30;96.70;;;;;;4929999;29;20537;-80
2023/11/07 08:48:18;;;;;;;3.53;1.75;;;15.40;96.70;;;;;;4929956;29;20669;-79
2023/11/07 08:50:47;;;;;;;3.80;1.92;;;15.50;96.70;;;;;;4899234;29;20056;-79
2023/11/07 08:53:18;;;;;;;5.28;2.00;;;15.50;96.70;;;;;;4928909;29;20579;-81
2023/11/07 08:55:50;;;;;;;7.63;2.10;;;15.60;96.70;;;;;;4930151;29;20055;-81
2023/11/07 08:58:18;;;;;;;8.48;3.50;;;15.70;96.70;;;;;;4929900;29;20047;-82
2023/11/07 09:00:46;;;;;;;6.20;3.38;;;15.80;96.70;;;;;;4899989;29;20055;-81
2023/11/07 09:03:14;;;;;;;4.43;2.20;;;15.90;96.70;;;;;;4913504;29;20063;-80
2023/11/07 09:05:42;;;;;;;5.60;3.22;;;15.90;96.70;;;;;;4929906;29;20119;-80
2023/11/07 09:08:11;;;;;;;7.53;3.20;;;16.10;96.70;;;;;;4921043;29;20051;-80
2023/11/07 09:10:39;;;;;;;6.55;2.40;;;16.20;96.70;;;;;;4920980;29;20043;-80
2023/11/07 09:13:07;;;;;;;5.80;2.20;;;16.20;96.70;;;;;;4912883;29;20083;-81
2023/11/07 09:15:36;;;;;;;7.50;2.85;;;16.20;96.70;;;;;;4911794;29;20213;-80
2023/11/07 09:18:06;;;;;;;6.93;2.40;;;16.20;96.70;;;;;;4912294;29;20437;-80
2023/11/07 09:20:40;;;;;;;6.18;2.15;;;16.20;96.70;;;;;;4919685;29;20148;-81
2023/11/07 09:23:08;;;;;;;6.20;2.00;;;16.30;96.70;;;;;;4895232;29;20044;-79
2023/11/07 09:25:38;;;;;;;8.75;2.00;;;16.40;96.70;;;;;;4911999;29;20626;-79
2023/11/07 09:28:06;;;;;;;4.38;1.77;;;16.50;96.70;;;;;;4945956;29;20528;-79
2023/11/07 09:30:34;;;;;;;8.05;1.80;;;16.60;96.70;;;;;;4921518;29;20146;-81
2023/11/07 09:33:06;;;;;;;4.10;1.70;;;16.60;96.70;;;;;;4937702;29;20047;-80
2023/11/07 09:35:37;;;;;;;7.10;1.75;;;16.70;96.70;;;;;;4922875;29;20056;-80
2023/11/07 09:38:04;;;;;;;5.47;1.80;;;16.80;96.70;;;;;;4946850;29;20060;-80
2023/11/07 09:40:33;;;;;;;4.50;1.55;;;16.90;96.70;;;;;;4911160;29;20591;-79
2023/11/07 09:43:02;;;;;;;4.55;1.92;;;17.00;96.70;;;;;;4926192;29;20138;-81
2023/11/07 09:45:36;;;;;;;7.95;1.88;;;17.10;96.70;;;;;;4919881;29;20052;-80
2023/11/07 09:48:09;;;;;;;6.03;1.80;;;17.20;96.70;;;;;;4928384;29;20127;-80
2023/11/07 09:50:41;;;;;;;6.30;1.80;;;17.20;96.70;;;;;;4911806;29;20047;-79
2023/11/07 09:53:13;;;;;;;8.93;1.90;;;17.30;96.70;;;;;;4923391;29;20821;-79
2023/11/07 09:55:41;;;;;;;7.72;2.50;;;17.40;96.70;;;;;;4927545;29;20052;-80
2023/11/07 09:58:19;;;;;;;5.88;2.03;;;17.50;96.70;;;;;;4903080;29;20074;-81
2023/11/07 10:00:48;;;;;;;8.57;2.30;;;17.60;96.70;;;;;;4931070;29;20130;-79
2023/11/07 10:03:17;;;;;;;8.40;2.33;;;17.70;96.70;;;;;;4926063;29;20086;-78
2023/11/07 10:05:47;;;;;;;10.23;2.80;;;17.90;96.70;;;;;;4897147;29;20557;-79
2023/11/07 10:08:18;;;;;;;11.02;2.65;;;17.90;96.70;;;;;;4910441;29;20047;-79
2023/11/07 10:11:07;;;;;;;9.25;2.97;;;18.00;96.70;;;;;;4906240;29;20055;-80
2023/11/07 10:13:37;;;;;;;11.52;2.58;;;18.10;96.70;;;;;;4922103;29;20050;-80
2023/11/07 10:16:06;;;;;;;8.45;2.47;;;18.10;96.70;;;;;;4937845;29;20068;-82
2023/11/07 10:18:47;;;;;;;8.52;2.13;;;18.10;96.70;;;;;;4922335;29;20502;-84
2023/11/07 10:21:29;;;;;;;10.20;2.72;;;18.30;96.70;;;;;;4913805;29;20110;-85
2023/11/07 10:23:57;;;;;;;6.68;1.80;;;18.40;96.70;;;;;;4922251;29;20067;-85
2023/11/07 10:26:32;;;;;;;5.50;1.75;;;18.40;96.70;;;;;;4897178;29;20047;-84
2023/11/07 10:29:25;;;;;;;5.17;1.47;;;18.50;96.70;;;;;;4913384;29;20071;-84
2023/11/07 10:32:00;;;;;;;5.13;1.42;;;18.60;96.70;;;;;;4913329;29;20056;-84
2023/11/07 10:34:30;;;;;;;3.17;1.23;;;18.60;96.70;;;;;;4929925;29;20068;-85
2023/11/07 10:37:00;;;;;;;4.18;1.20;;;18.60;96.70;;;;;;4931347;29;20607;-86
2023/11/07 10:39:30;;;;;;;5.78;1.35;;;18.70;96.70;;;;;;4930528;29;20585;-85
2023/11/07 10:42:18;;;;;;;5.30;1.20;;;18.70;96.70;;;;;;4931087;29;20135;-86
2023/11/07 10:45:01;;;;;;;6.13;1.30;;;18.70;96.70;;;;;;4913409;29;20307;-85
2023/11/07 10:47:34;;;;;;;7.93;1.73;;;18.80;96.70;;;;;;4938936;29;20044;-84
2023/11/07 10:50:04;;;;;;;5.05;1.55;;;18.90;96.70;;;;;;4924587;29;20064;-83
2023/11/07 10:52:33;;;;;;;4.82;1.67;;;18.90;96.70;;;;;;4928782;29;20154;-84
2023/11/07 10:55:04;;;;;;;7.05;1.50;;;18.90;96.70;;;;;;4912923;29;20047;-83
2023/11/07 10:57:35;;;;;;;4.32;1.23;;;19.00;96.70;;;;;;4930269;29;21052;-85
2023/11/07 11:00:19;;;;;;;6.43;1.40;;;19.10;96.70;;;;;;4913840;29;20130;-83
2023/11/07 11:02:53;;;;;;;7.35;1.58;;;19.40;96.70;;;;;;4913079;29;20496;-83
2023/11/07 11:05:24;;;;;;;5.95;1.55;;;19.60;96.70;;;;;;4905259;29;20462;-82
2023/11/07 11:08:02;;;;;;;5.05;1.40;;;19.60;96.70;;;;;;4929319;29;20225;-82
2023/11/07 11:10:33;;;;;;;6.80;1.42;;;19.70;96.70;;;;;;4904120;29;20614;-81
2023/11/07 11:13:03;;;;;;;6.53;1.58;;;19.90;96.70;;;;;;4918516;29;20052;-79
2023/11/07 11:15:34;;;;;;;7.10;1.75;;;20.10;96.70;;;;;;4912792;29;20048;-78
2023/11/07 11:18:07;;;;;;;5.32;1.30;;;20.00;96.70;;;;;;4931086;29;20054;-80
2023/11/07 11:20:43;;;;;;;4.70;1.35;;;20.00;96.70;;;;;;4901874;29;20055;-78
2023/11/07 11:23:21;;;;;;;3.33;1.20;;;19.80;96.70;;;;;;4926719;29;20506;-78
2023/11/07 11:26:08;;;;;;;6.95;1.58;;;19.50;96.70;;;;;;4934080;29;20593;-79
2023/11/07 11:28:37;;;;;;;7.47;1.50;;;19.30;96.70;;;;;;4930125;29;20630;-79
2023/11/07 11:31:12;;;;;;;5.50;1.42;;;19.20;96.70;;;;;;4936370;29;20047;-79
2023/11/07 11:33:43;;;;;;;5.07;1.52;;;19.20;96.70;;;;;;4888867;29;20052;-80
2023/11/07 11:36:33;;;;;;;6.45;1.00;;;19.10;96.70;;;;;;4920109;29;20638;-78
2023/11/07 11:39:01;;;;;;;4.22;1.00;;;19.20;96.70;;;;;;4928822;29;20046;-79
2023/11/07 11:41:53;;;;;;;5.90;0.80;;;19.60;96.70;;;;;;4921142;29;20048;-80
2023/11/07 11:44:22;;;;;;;5.10;0.60;;;19.90;96.70;;;;;;4941346;29;20050;-79
2023/11/07 11:46:52;;;;;;;3.42;0.60;;;20.00;96.70;;;;;;4921028;29;20051;-80
2023/11/07 11:49:21;;;;;;;5.25;0.88;;;19.90;96.70;;;;;;4931392;29;20512;-79
2023/11/07 11:51:54;;;;;;;3.00;0.52;;;20.00;96.70;;;;;;4912775;29;20102;-80
2023/11/07 11:54:52;;;;;;;5.50;0.80;;;20.10;96.70;;;;;;4930428;29;20138;-80
2023/11/07 11:57:22;;;;;;;3.25;0.68;;;20.30;96.70;;;;;;4852702;29;20055;-78
2023/11/07 11:59:54;;;;;;;3.47;0.60;;;20.10;96.70;;;;;;4899909;29;20056;-81
2023/11/07 12:02:39;;;;;;;2.60;0.68;;;20.30;96.70;;;;;;4918495;29;20115;-79
2023/11/07 12:05:17;;;;;;;4.07;1.08;;;20.10;96.70;;;;;;4918875;29;20048;-79
2023/11/07 12:07:46;;;;;;;2.92;0.70;;;20.20;96.70;;;;;;4906156;29;20047;-79
2023/11/07 12:10:16;;;;;;;2.97;0.50;;;20.20;96.70;;;;;;4909965;29;20071;-80
2023/11/07 12:12:56;;;;;;;5.72;0.70;;;20.10;96.70;;;;;;4909915;29;20052;-81
2023/11/07 12:15:26;;;;;;;4.72;0.85;;;20.10;96.70;;;;;;4912626;29;20051;-80
2023/11/07 12:17:57;;;;;;;3.03;0.57;;;19.90;96.70;;;;;;4920819;29;20044;-79
2023/11/07 12:20:26;;;;;;;2.90;0.63;;;19.80;96.70;;;;;;4907494;29;20562;-79
2023/11/07 12:22:54;;;;;;;2.47;0.70;;;19.70;96.70;;;;;;4917961;29;20051;-79
2023/11/07 12:25:22;;;;;;;3.28;0.35;;;20.00;96.70;;;;;;4899173;29;20093;-80
2023/11/07 12:28:03;;;;;;;2.92;0.40;;;20.20;96.70;;;;;;4911977;29;20054;-79
2023/11/07 12:30:34;;;;;;;2.78;0.75;;;20.40;96.70;;;;;;4909409;29;20052;-80
2023/11/07 12:33:07;;;;;;;2.28;0.60;;;20.50;96.70;;;;;;4893841;29;20052;-79
2023/11/07 12:35:35;;;;;;;3.35;0.60;;;20.60;96.70;;;;;;4895186;29;20523;-80
2023/11/07 12:38:09;;;;;;;2.22;0.47;;;20.50;96.70;;;;;;4912956;29;20050;-80
2023/11/07 12:40:39;;;;;;;2.95;0.50;;;20.60;96.70;;;;;;4919460;29;20052;-80
2023/11/07 12:43:08;;;;;;;3.28;0.70;;;20.30;96.70;;;;;;4923957;29;20055;-80
2023/11/07 12:45:38;;;;;;;3.55;0.50;;;20.40;96.70;;;;;;4911726;29;20056;-80
2023/11/07 12:48:13;;;;;;;5.85;0.70;;;20.50;96.70;;;;;;4918967;29;20058;-80
2023/11/07 12:50:44;;;;;;;2.33;0.52;;;20.40;96.70;;;;;;4924287;29;20075;-79
2023/11/07 12:53:12;;;;;;;2.65;0.70;;;20.00;96.70;;;;;;4919098;29;20191;-80
2023/11/07 12:56:09;;;;;;;1.33;0.38;;;19.80;96.70;;;;;;4911321;29;20098;-79
2023/11/07 12:58:37;;;;;;;3.33;0.67;;;20.00;96.70;;;;;;4924109;29;20060;-80
2023/11/07 13:01:07;;;;;;;6.13;0.88;;;20.00;96.70;;;;;;4916438;29;20043;-79